Terminal Aerodrome Forecast
Issued by NWS

Home | Current Version | Previous Version | Text Only | Print | Product List | Glossary On
Versions: 1 2 3 4 5 6 7 8 9 10 11 12 13 14 15 16 17 18 19 20 21 22 23 24
000
FTUS41 KCAR 201720
TAFPQI
TAF
KPQI 201720Z 2018/2118 26017G25KT P6SM OVC028
     FM202000 27014G24KT P6SM BKN040 WS020/27045KT
     FM210200 31010KT P6SM VCSH BKN040
     FM210600 31008KT P6SM SCT040
     FM211400 31010G18KT P6SM FEW050 SCT200=

USA.gov is the U.S. government's official web portal to all federal, state and local government web resources and services.